createdAt,value
2018-08-22T00:00:16.578Z,83.67
2018-08-22T00:01:16.597Z,83.67
2018-08-22T00:02:16.547Z,84.06
2018-08-22T00:03:16.347Z,84.25
2018-08-22T00:04:17.378Z,83.77
2018-08-22T00:05:16.168Z,84.64
2018-08-22T00:06:16.223Z,84.44
2018-08-22T00:07:16.014Z,84.44
2018-08-22T00:08:16.068Z,84.44
2018-08-22T00:09:15.847Z,84.35
2018-08-22T00:10:15.833Z,84.25
2018-08-22T00:11:15.702Z,84.25
2018-08-22T00:12:15.741Z,83.96
2018-08-22T00:13:15.569Z,83.96
2018-08-22T00:14:15.571Z,84.25
2018-08-22T00:15:15.465Z,84.25
2018-08-22T00:16:15.370Z,84.44
2018-08-22T00:17:15.241Z,84.06
2018-08-22T00:18:15.213Z,84.06
2018-08-22T00:19:15.072Z,84.25
2018-08-22T00:20:15.079Z,83.87
2018-08-22T00:21:14.964Z,84.06
2018-08-22T00:22:14.892Z,84.16
2018-08-22T00:23:14.787Z,83.58
2018-08-22T00:24:14.806Z,84.06
2018-08-22T00:25:14.618Z,84.06
2018-08-22T00:26:14.677Z,83.67
2018-08-22T00:27:14.459Z,83.77
2018-08-22T00:28:14.423Z,83.48
2018-08-22T00:29:14.432Z,83.77
2018-08-22T00:30:14.337Z,83.48
2018-08-22T00:31:14.150Z,84.16
2018-08-22T00:32:14.136Z,84.06
2018-08-22T00:33:13.987Z,84.06
2018-08-22T00:34:13.994Z,84.25
2018-08-22T00:35:13.833Z,84.31
2018-08-22T00:36:13.863Z,83.73
2018-08-22T00:37:13.669Z,84.59
2018-08-22T00:38:13.664Z,84.25
2018-08-22T00:39:13.539Z,84.01
2018-08-22T00:40:13.520Z,84.35
2018-08-22T00:41:13.364Z,84.11
2018-08-22T00:42:13.383Z,83.92
2018-08-22T00:43:13.210Z,83.83
2018-08-22T00:44:13.191Z,84.01
2018-08-22T00:45:13.056Z,84.11
2018-08-22T00:46:12.998Z,83.83
2018-08-22T00:47:12.883Z,83.92
2018-08-22T00:48:12.914Z,84.16
2018-08-22T00:49:12.727Z,83.92
2018-08-22T00:50:12.762Z,83.58
2018-08-22T00:51:12.626Z,83.63
2018-08-22T00:53:54.809Z,84.21
2018-08-22T00:54:54.842Z,83.83
2018-08-22T00:55:54.679Z,83.73
2018-08-22T00:56:54.639Z,83.44
2018-08-22T00:57:54.499Z,84.21
2018-08-22T00:58:54.468Z,83.92
2018-08-22T01:02:39.418Z,84.21
2018-08-22T01:03:39.245Z,84.41
2018-08-22T01:06:21.355Z,84.41
2018-08-22T01:09:03.314Z,84.41
2018-08-22T01:10:04.290Z,84.41
2018-08-22T01:11:03.150Z,84.01
2018-08-22T01:12:04.189Z,83.83
2018-08-22T01:13:03.003Z,84.31
2018-08-22T01:14:03.048Z,84.01
2018-08-22T01:15:02.841Z,84.21
2018-08-22T01:16:02.857Z,84.59
2018-08-22T01:17:02.714Z,84.01
2018-08-22T01:18:02.667Z,84.41
2018-08-22T01:19:02.536Z,84.50
2018-08-22T01:20:02.595Z,84.50
2018-08-22T01:21:02.372Z,84.50
2018-08-22T01:22:02.389Z,84.31
2018-08-22T01:23:02.235Z,84.41
2018-08-22T01:24:02.198Z,84.31
2018-08-22T01:25:02.064Z,84.41
2018-08-22T01:27:44.351Z,84.21
2018-08-22T01:28:44.311Z,84.31
2018-08-22T01:29:44.162Z,84.11
2018-08-22T01:30:44.116Z,84.21
2018-08-22T01:31:44.133Z,84.41
2018-08-22T01:32:44.068Z,84.79
2018-08-22T01:33:43.845Z,84.69
2018-08-22T01:34:43.843Z,84.98
2018-08-22T01:35:43.699Z,85.03
2018-08-22T01:36:43.653Z,84.31
2018-08-22T01:37:43.560Z,84.89
2018-08-22T01:38:43.557Z,84.79
2018-08-22T01:39:43.387Z,84.89
2018-08-22T01:40:43.378Z,84.89
2018-08-22T01:41:43.230Z,84.98
2018-08-22T01:42:43.215Z,85.03
2018-08-22T01:43:43.080Z,85.23
2018-08-22T01:44:43.088Z,84.31
2018-08-22T01:45:42.908Z,84.41
2018-08-22T01:48:24.847Z,84.41
2018-08-22T01:49:24.795Z,84.89
2018-08-22T01:50:24.677Z,84.21
2018-08-22T01:51:24.711Z,84.31
2018-08-22T01:52:24.543Z,84.50
2018-08-22T01:53:24.560Z,84.50
2018-08-22T01:54:24.355Z,84.41
2018-08-22T01:55:24.432Z,84.31
2018-08-22T01:56:24.207Z,84.36
2018-08-22T01:59:06.347Z,84.75
2018-08-22T02:00:06.322Z,84.46
2018-08-22T02:01:06.170Z,84.17
2018-08-22T02:02:06.133Z,84.84
2018-08-22T02:03:06.023Z,84.75
2018-08-22T02:04:06.092Z,84.94
2018-08-22T02:05:05.860Z,85.23
2018-08-22T02:06:05.856Z,85.13
2018-08-22T02:07:05.703Z,85.33
2018-08-22T02:08:05.670Z,85.03
2018-08-22T02:09:05.566Z,85.33
2018-08-22T02:11:47.842Z,85.03
2018-08-22T02:12:49.946Z,85.61
2018-08-22T02:13:47.675Z,86.29
2018-08-22T02:17:11.870Z,86.39
2018-08-22T02:18:11.752Z,86.05
2018-08-22T02:19:11.812Z,86.44
2018-08-22T02:20:11.605Z,86.54
2018-08-22T02:21:11.584Z,86.48
2018-08-22T02:22:11.447Z,86.05
2018-08-22T02:23:11.494Z,86.92
2018-08-22T02:24:11.376Z,86.73
2018-08-22T02:25:11.326Z,87.02
2018-08-22T02:26:11.142Z,87.40
2018-08-22T02:28:53.356Z,87.30
2018-08-22T02:29:53.352Z,88.17
2018-08-22T02:30:53.223Z,87.88
2018-08-22T02:33:35.335Z,88.37
2018-08-22T02:34:35.353Z,89.04
2018-08-22T02:35:35.178Z,89.04
2018-08-22T03:01:57.189Z,89.09
2018-08-22T03:02:57.115Z,88.95
2018-08-22T03:03:57.064Z,87.98
2018-08-22T03:06:38.875Z,87.40
2018-08-22T03:09:20.865Z,87.88
2018-08-22T03:10:20.824Z,88.17
2018-08-22T03:11:20.715Z,87.88
2018-08-22T03:12:21.693Z,88.46
2018-08-22T03:13:20.551Z,88.27
2018-08-22T03:14:20.549Z,88.27
2018-08-22T03:15:20.387Z,88.46
2018-08-22T03:16:20.345Z,88.27
2018-08-22T03:17:20.244Z,88.46
2018-08-22T03:18:20.265Z,88.17
2018-08-22T03:19:20.081Z,88.65
2018-08-22T03:20:20.067Z,89.23
2018-08-22T03:21:19.914Z,88.85
2018-08-22T03:22:19.922Z,89.14
2018-08-22T03:23:19.755Z,88.81
2018-08-22T03:24:19.785Z,88.08
2018-08-22T03:25:19.596Z,88.37
2018-08-22T03:26:19.590Z,88.37
2018-08-22T03:27:19.476Z,88.37
2018-08-22T03:28:19.430Z,88.56
2018-08-22T03:29:19.298Z,88.27
2018-08-22T03:32:01.357Z,88.17
2018-08-22T03:33:01.311Z,88.75
2018-08-22T03:34:01.199Z,89.58
2018-08-22T03:35:01.251Z,88.95
2018-08-22T03:36:01.060Z,89.39
2018-08-22T03:37:01.034Z,91.02
2018-08-22T03:38:00.930Z,90.64
2018-08-22T03:39:00.938Z,91.41
2018-08-22T03:40:00.729Z,92.08
2018-08-22T03:41:00.747Z,91.94
2018-08-22T03:42:00.580Z,93.00
2018-08-22T03:44:25.394Z,94.34
2018-08-22T03:45:26.418Z,94.92
2018-08-22T03:46:25.204Z,95.21
2018-08-22T03:49:07.359Z,95.40
2018-08-22T03:50:07.396Z,94.54
2018-08-22T03:51:07.205Z,95.40
2018-08-22T03:52:07.164Z,95.40
2018-08-22T03:53:07.045Z,95.21
2018-08-22T03:54:07.123Z,95.65
2018-08-22T03:55:06.902Z,96.22
2018-08-22T03:56:06.898Z,96.03
2018-08-22T03:57:06.740Z,96.32
2018-08-22T03:58:06.697Z,95.45
2018-08-22T04:17:28.990Z,95.17
2018-08-22T04:18:28.809Z,95.36
2018-08-22T04:19:29.826Z,95.36
2018-08-22T04:20:28.658Z,95.26
2018-08-22T04:21:28.661Z,95.36
2018-08-22T04:22:28.490Z,95.94
2018-08-22T04:25:10.398Z,95.94
2018-08-22T04:26:10.377Z,96.03
2018-08-22T04:27:10.221Z,95.69
2018-08-22T04:28:10.175Z,95.74
2018-08-22T04:29:10.061Z,95.84
2018-08-22T04:30:10.126Z,95.74
2018-08-22T04:31:09.907Z,95.94
2018-08-22T04:33:51.880Z,95.45
2018-08-22T04:34:52.844Z,95.84
2018-08-22T04:35:51.730Z,96.61
2018-08-22T04:36:51.706Z,96.03
2018-08-22T04:37:51.572Z,96.03
2018-08-22T04:38:51.611Z,96.12
2018-08-22T04:39:51.457Z,96.32
2018-08-22T04:40:51.457Z,96.61
2018-08-22T04:41:51.252Z,96.32
2018-08-22T04:42:51.232Z,96.99
2018-08-22T04:43:51.093Z,97.19
2018-08-22T04:44:51.036Z,97.96
2018-08-22T04:45:50.953Z,98.05
2018-08-22T04:46:50.951Z,97.19
2018-08-22T04:47:50.770Z,96.80
2018-08-22T04:48:50.752Z,96.99
2018-08-22T04:49:50.620Z,96.51
2018-08-22T04:50:50.606Z,96.22
2018-08-22T04:51:50.458Z,95.65
2018-08-22T04:52:50.484Z,95.74
2018-08-22T04:53:50.297Z,96.99
2018-08-22T04:54:50.292Z,96.12
2018-08-22T04:55:50.163Z,97.09
2018-08-22T04:56:54.523Z,95.74
2018-08-22T04:57:49.984Z,96.42
2018-08-22T04:58:49.913Z,96.32
2018-08-22T04:59:49.822Z,96.22
2018-08-22T05:00:49.771Z,96.12
2018-08-22T05:01:49.691Z,96.51
2018-08-22T05:02:49.598Z,96.99
2018-08-22T05:03:49.526Z,96.70
2018-08-22T05:04:49.435Z,97.28
2018-08-22T05:05:49.353Z,97.09
2018-08-22T05:06:49.295Z,97.19
2018-08-22T05:07:49.204Z,97.09
2018-08-22T05:08:49.133Z,97.09
2018-08-22T05:09:49.038Z,96.80
2018-08-22T05:10:48.964Z,96.70
2018-08-22T05:11:48.915Z,96.70
2018-08-22T05:12:48.806Z,96.61
2018-08-22T05:13:48.718Z,95.84
2018-08-22T05:14:48.655Z,95.84
2018-08-22T05:15:48.565Z,96.70
2018-08-22T05:16:49.506Z,95.45
2018-08-22T05:17:48.403Z,96.32
2018-08-22T05:18:48.346Z,96.80
2018-08-22T05:19:48.273Z,97.28
2018-08-22T05:20:48.346Z,96.99
2018-08-22T05:21:48.107Z,97.09
2018-08-22T05:22:48.024Z,97.09
2018-08-22T05:23:47.941Z,96.89
2018-08-22T05:26:29.910Z,96.99
2018-08-22T05:27:29.818Z,97.09
2018-08-22T05:28:29.759Z,97.09
2018-08-22T05:29:29.680Z,96.99
2018-08-22T05:30:29.578Z,97.67
2018-08-22T05:31:29.526Z,97.86
2018-08-22T05:32:29.427Z,98.00
2018-08-22T05:33:29.370Z,96.08
2018-08-22T05:34:29.265Z,97.04
2018-08-22T05:35:29.186Z,95.50
2018-08-22T05:36:29.102Z,95.21
2018-08-22T05:37:29.053Z,94.54
2018-08-22T05:38:28.955Z,94.92
2018-08-22T05:39:28.871Z,94.34
2018-08-22T05:40:28.858Z,94.54
2018-08-22T05:43:10.982Z,95.02
2018-08-22T05:44:10.895Z,94.64
2018-08-22T05:45:10.736Z,94.34
2018-08-22T05:47:52.899Z,95.12
2018-08-22T05:48:53.847Z,94.82
2018-08-22T05:49:52.740Z,95.50
2018-08-22T05:50:52.662Z,94.92
2018-08-22T05:51:52.589Z,94.82
2018-08-22T05:52:52.534Z,95.40
2018-08-22T05:53:52.437Z,94.92
2018-08-22T05:56:34.420Z,94.64
2018-08-22T05:57:34.362Z,94.44
2018-08-22T05:58:34.252Z,94.49
2018-08-22T05:59:34.181Z,94.44
2018-08-22T06:00:34.107Z,94.78
2018-08-22T06:01:34.026Z,94.49
2018-08-22T06:02:33.947Z,94.29
2018-08-22T06:03:33.912Z,94.59
2018-08-22T06:04:33.780Z,94.78
2018-08-22T06:05:33.721Z,94.01
2018-08-22T06:06:33.626Z,94.01
2018-08-22T06:07:33.573Z,93.19
2018-08-22T06:08:33.466Z,93.19
2018-08-22T06:09:33.452Z,93.28
2018-08-22T06:10:33.329Z,92.51
2018-08-22T06:11:33.228Z,92.51
2018-08-22T06:12:33.154Z,92.36
2018-08-22T06:13:33.096Z,91.98
2018-08-22T06:14:33.018Z,91.06
2018-08-22T06:15:32.955Z,87.29
2018-08-22T06:16:32.835Z,84.86
2018-08-22T06:17:32.770Z,81.46
2018-08-22T06:18:32.679Z,78.79
2018-08-22T06:19:32.627Z,77.51
2018-08-22T06:20:32.528Z,75.03
2018-08-22T06:21:33.478Z,73.32
2018-08-22T06:22:32.382Z,71.84
2018-08-22T06:23:32.315Z,71.64
2018-08-22T06:24:32.225Z,71.48
2018-08-22T06:25:32.224Z,72.45
2018-08-22T06:26:32.124Z,71.55
2018-08-22T06:27:32.006Z,69.45
2018-08-22T06:28:31.925Z,68.22
2018-08-22T06:29:31.846Z,67.86
2018-08-22T06:30:31.788Z,66.83
2018-08-22T06:31:31.701Z,65.95
2018-08-22T06:32:31.615Z,66.44
2018-08-22T06:33:31.571Z,64.65
2018-08-22T06:34:31.491Z,63.32
2018-08-22T06:35:31.423Z,63.22
2018-08-22T06:36:31.365Z,63.68
2018-08-22T06:39:13.433Z,62.63
2018-08-22T06:40:13.369Z,62.76
2018-08-22T06:41:13.277Z,61.89
2018-08-22T06:43:55.444Z,63.39
2018-08-22T06:44:55.357Z,62.70
2018-08-22T06:45:55.292Z,62.44
2018-08-22T06:48:37.421Z,62.05
2018-08-22T06:49:37.351Z,63.09
2018-08-22T06:50:37.304Z,62.90
2018-08-22T06:53:19.425Z,62.54
2018-08-22T06:56:01.443Z,60.65
2018-08-22T06:58:43.550Z,60.19
2018-08-22T06:59:43.382Z,59.87
2018-08-22T07:00:43.346Z,60.36
2018-08-22T07:01:43.237Z,60.10
2018-08-22T07:02:43.160Z,59.12
2018-08-22T07:03:43.071Z,60.16
2018-08-22T07:16:58.817Z,56.64
2018-08-22T07:17:58.731Z,56.54
2018-08-22T07:18:58.674Z,58.14
2018-08-22T07:19:58.610Z,57.32
2018-08-22T07:20:58.552Z,57.23
2018-08-22T07:21:58.451Z,56.93
2018-08-22T07:22:58.382Z,57.23
2018-08-22T07:23:58.301Z,58.66
2018-08-22T07:24:58.236Z,58.17
2018-08-22T07:25:58.162Z,57.39
2018-08-22T07:26:58.082Z,57.03
2018-08-22T07:27:58.086Z,57.06
2018-08-22T07:28:57.969Z,57.74
2018-08-22T07:29:57.966Z,57.13
2018-08-22T07:30:57.821Z,58.07
2018-08-22T07:31:57.743Z,59.22
2018-08-22T07:32:57.685Z,59.12
2018-08-22T07:33:57.644Z,58.56
2018-08-22T07:34:57.548Z,58.47
2018-08-22T07:37:39.449Z,60.06
2018-08-22T07:40:21.470Z,59.61
2018-08-22T07:43:03.468Z,58.01
2018-08-22T07:44:03.409Z,57.81
2018-08-22T07:45:03.338Z,57.49
2018-08-22T07:46:03.243Z,58.97
2018-08-22T07:47:03.163Z,58.73
2018-08-22T07:48:03.127Z,59.77
2018-08-22T07:49:03.021Z,59.41
2018-08-22T07:50:03.044Z,58.92
2018-08-22T07:51:02.897Z,58.76
2018-08-22T07:52:02.829Z,58.73
2018-08-22T07:53:02.762Z,60.29
2018-08-22T07:54:02.707Z,60.16
2018-08-22T07:55:02.634Z,60.55
2018-08-22T07:56:02.552Z,60.29
2018-08-22T07:57:02.463Z,58.83
2018-08-22T07:59:44.476Z,56.99
2018-08-22T08:00:44.417Z,57.25
2018-08-22T08:01:44.358Z,57.03
2018-08-22T08:02:44.279Z,55.96
2018-08-22T08:03:44.188Z,56.47
2018-08-22T08:04:44.109Z,56.37
2018-08-22T08:05:44.066Z,55.20
2018-08-22T08:08:25.963Z,56.90
2018-08-22T08:09:25.898Z,56.84
2018-08-22T08:10:25.810Z,56.84
2018-08-22T08:11:26.779Z,57.52
2018-08-22T08:12:25.683Z,55.79
2018-08-22T08:15:07.967Z,56.27
2018-08-22T08:16:07.942Z,55.32
2018-08-22T08:17:07.877Z,54.86
2018-08-22T08:18:07.754Z,54.86
2018-08-22T08:19:07.692Z,54.22
2018-08-22T08:20:07.613Z,54.93
2018-08-22T08:21:07.619Z,54.28
2018-08-22T08:22:07.527Z,53.91
2018-08-22T08:23:07.413Z,54.69
2018-08-22T08:24:07.358Z,55.32
2018-08-22T08:25:07.270Z,55.22
2018-08-22T08:26:07.225Z,54.86
2018-08-22T08:27:07.152Z,55.28
2018-08-22T08:29:48.966Z,53.91
2018-08-22T08:30:50.944Z,53.84
2018-08-22T08:31:48.886Z,54.60
2018-08-22T08:32:48.781Z,56.29
2018-08-22T08:33:48.685Z,54.89
2018-08-22T08:34:48.642Z,54.36
2018-08-22T08:35:48.623Z,53.67
2018-08-22T08:36:48.546Z,52.52
2018-08-22T08:37:48.439Z,53.57
2018-08-22T08:38:48.373Z,52.40
2018-08-22T08:39:48.299Z,51.81
2018-08-22T08:40:48.232Z,53.08
2018-08-22T08:41:48.379Z,53.20
2018-08-22T08:42:48.121Z,53.57
2018-08-22T08:43:48.019Z,52.91
2018-08-22T08:46:29.977Z,52.62
2018-08-22T08:47:29.924Z,53.99
2018-08-22T08:48:29.847Z,52.03
2018-08-22T08:49:29.824Z,52.50
2018-08-22T08:50:29.709Z,53.06
2018-08-22T08:53:11.984Z,52.76
2018-08-22T08:54:11.924Z,53.30
2018-08-22T08:55:11.848Z,54.11
2018-08-22T08:56:11.823Z,53.23
2018-08-22T08:57:11.815Z,54.60
2018-08-22T08:58:11.743Z,54.13
2018-08-22T08:59:11.615Z,55.21
2018-08-22T09:00:11.516Z,53.96
2018-08-22T09:01:11.454Z,53.67
2018-08-22T09:02:11.392Z,53.89
2018-08-22T09:03:11.316Z,53.82
2018-08-22T09:04:11.305Z,53.08
2018-08-22T09:05:11.204Z,54.72
2018-08-22T09:06:11.134Z,53.57
2018-08-22T09:07:11.047Z,53.20
2018-08-22T09:09:53.010Z,53.01
2018-08-22T09:10:52.991Z,53.13
2018-08-22T09:11:52.858Z,54.09
2018-08-22T09:12:52.809Z,54.77
2018-08-22T09:13:52.768Z,53.23
2018-08-22T09:14:52.666Z,53.06
2018-08-22T09:15:52.586Z,53.09
2018-08-22T09:18:34.505Z,52.94
2018-08-22T09:19:35.453Z,52.91
2018-08-22T09:20:34.353Z,53.82
2018-08-22T09:21:34.370Z,51.42
2018-08-22T09:22:34.228Z,50.37
2018-08-22T09:23:34.167Z,49.29
2018-08-22T09:24:34.140Z,49.85
2018-08-22T09:25:34.028Z,51.49
2018-08-22T09:26:33.982Z,52.64
2018-08-22T09:27:33.901Z,52.79
2018-08-22T09:28:33.822Z,54.03
2018-08-22T09:29:33.815Z,54.46
2018-08-22T09:30:33.747Z,53.57
2018-08-22T09:33:15.989Z,54.25
2018-08-22T09:34:15.931Z,53.11
2018-08-22T09:35:15.911Z,53.23
2018-08-22T09:36:15.797Z,51.20
2018-08-22T09:37:15.730Z,49.46
2018-08-22T09:39:58.057Z,51.56
2018-08-22T09:40:57.951Z,51.79
2018-08-22T09:41:57.869Z,52.91
2018-08-22T09:42:57.808Z,50.07
2018-08-22T09:43:57.741Z,50.59
2018-08-22T09:44:57.726Z,51.51
2018-08-22T09:45:57.643Z,50.98
2018-08-22T09:46:57.559Z,51.00
2018-08-22T09:47:57.512Z,49.85
2018-08-22T09:48:57.433Z,49.68
2018-08-22T09:49:57.381Z,49.29
2018-08-22T09:50:57.471Z,49.68
2018-08-22T09:51:57.258Z,49.29
2018-08-22T09:54:39.577Z,50.63
2018-08-22T09:55:39.471Z,50.63
2018-08-22T09:56:39.376Z,50.20
2018-08-22T09:57:39.319Z,50.42
2018-08-22T09:58:39.263Z,50.51
2018-08-22T09:59:39.212Z,51.20
2018-08-22T10:00:39.170Z,50.98
2018-08-22T10:01:39.101Z,50.68
2018-08-22T10:02:38.978Z,50.68
2018-08-22T10:05:21.019Z,49.87
2018-08-22T10:06:21.004Z,50.37
2018-08-22T10:07:20.896Z,51.64
2018-08-22T10:08:20.845Z,52.69
2018-08-22T10:09:20.747Z,50.07
2018-08-22T10:10:20.722Z,49.53
2018-08-22T10:11:20.640Z,48.27
2018-08-22T10:14:02.505Z,48.57
2018-08-22T10:15:02.454Z,49.48
2018-08-22T10:16:02.445Z,48.30
2018-08-22T10:17:02.330Z,49.63
2018-08-22T10:18:02.256Z,50.32
2018-08-22T10:20:44.524Z,51.67
2018-08-22T10:21:44.482Z,50.34
2018-08-22T10:22:44.424Z,48.49
2018-08-22T10:23:44.343Z,46.92
2018-08-22T10:24:44.303Z,47.58
2018-08-22T10:25:44.197Z,50.51
2018-08-22T10:26:44.143Z,49.63
2018-08-22T10:27:44.099Z,49.26
2018-08-22T10:28:44.034Z,48.05
2018-08-22T10:29:43.956Z,48.08
2018-08-22T10:30:43.893Z,47.74
2018-08-22T10:31:44.856Z,48.13
2018-08-22T10:32:43.839Z,47.27
2018-08-22T10:33:43.723Z,46.90
2018-08-22T10:34:43.644Z,46.60
2018-08-22T10:35:43.591Z,46.25
2018-08-22T10:36:43.546Z,46.50
2018-08-22T10:37:43.498Z,47.71
2018-08-22T10:38:43.421Z,49.11
2018-08-22T10:39:43.354Z,49.26
2018-08-22T10:40:43.281Z,49.87
2018-08-22T10:41:43.254Z,50.37
2018-08-22T10:42:43.662Z,49.60
2018-08-22T10:43:43.101Z,50.21
2018-08-22T10:44:43.058Z,49.31
2018-08-22T10:45:42.974Z,47.93
2018-08-22T10:46:42.894Z,48.15
2018-08-22T10:47:42.877Z,47.83
2018-08-22T10:48:42.786Z,48.52
2018-08-22T10:51:25.005Z,49.29
2018-08-22T10:52:24.964Z,50.39
2018-08-22T10:53:24.912Z,51.17
2018-08-22T10:54:24.848Z,51.03
2018-08-22T10:55:24.764Z,51.10
2018-08-22T10:56:24.708Z,51.03
2018-08-22T10:57:24.814Z,51.67
2018-08-22T10:58:24.611Z,50.61
2018-08-22T10:59:24.518Z,48.23
2018-08-22T11:00:24.483Z,48.84
2018-08-22T11:01:24.412Z,50.63
2018-08-22T11:04:06.543Z,48.86
2018-08-22T11:05:06.481Z,47.51
2018-08-22T11:06:06.405Z,48.10
2018-08-22T11:08:48.534Z,48.47
2018-08-22T11:11:30.519Z,47.51
2018-08-22T11:14:12.545Z,46.97
2018-08-22T11:16:54.526Z,47.69
2018-08-22T11:17:54.472Z,48.08
2018-08-22T11:18:54.417Z,47.93
2018-08-22T11:21:36.518Z,49.23
2018-08-22T11:22:36.472Z,49.41
2018-08-22T11:23:36.446Z,47.93
2018-08-22T11:24:36.368Z,48.21
2018-08-22T11:25:36.281Z,48.23
2018-08-22T11:26:36.236Z,47.93
2018-08-22T11:27:36.178Z,48.15
2018-08-22T11:28:36.100Z,48.21
2018-08-22T11:29:36.061Z,49.31
2018-08-22T11:30:35.981Z,48.82
2018-08-22T11:31:35.914Z,49.08
2018-08-22T11:34:18.047Z,49.04
2018-08-22T11:35:18.020Z,49.41
2018-08-22T11:36:17.897Z,50.88
2018-08-22T11:37:17.851Z,50.51
2018-08-22T11:38:17.793Z,49.38
2018-08-22T11:39:17.736Z,47.81
2018-08-22T11:40:17.672Z,47.74
2018-08-22T11:41:17.613Z,47.93
2018-08-22T11:42:17.561Z,47.66
2018-08-22T11:43:17.477Z,46.31
2018-08-22T11:44:17.410Z,46.24
2018-08-22T11:45:17.385Z,47.32
2018-08-22T11:46:17.285Z,47.66
2018-08-22T11:47:17.228Z,47.66
2018-08-22T11:48:17.167Z,46.97
2018-08-22T11:49:17.126Z,46.53
2018-08-22T11:50:17.046Z,46.46
2018-08-22T11:51:18.027Z,47.30
2018-08-22T11:52:16.914Z,47.86
2018-08-22T11:54:59.038Z,48.18
2018-08-22T11:55:59.244Z,48.67
2018-08-22T11:56:58.961Z,50.61
2018-08-22T11:57:58.854Z,50.51
2018-08-22T11:58:58.792Z,50.44
2018-08-22T12:01:41.059Z,50.44
2018-08-22T12:04:23.071Z,48.96
2018-08-22T12:05:22.984Z,49.38
2018-08-22T12:06:22.933Z,49.38
2018-08-22T12:07:22.857Z,49.16
2018-08-22T12:08:22.782Z,48.57
2018-08-22T12:09:22.726Z,49.07
2018-08-22T12:10:22.653Z,49.43
2018-08-22T12:11:22.639Z,50.37
2018-08-22T12:12:22.539Z,51.05
2018-08-22T12:13:22.487Z,51.88
2018-08-22T12:14:22.393Z,50.93
2018-08-22T12:15:22.350Z,52.30
2018-08-22T12:16:22.264Z,52.98
2018-08-22T12:17:23.220Z,53.77
2018-08-22T12:18:22.128Z,53.16
2018-08-22T12:19:22.113Z,53.62
2018-08-22T12:20:22.021Z,53.78
2018-08-22T12:21:22.027Z,54.17
2018-08-22T12:22:21.903Z,55.22
2018-08-22T12:23:21.883Z,55.35
2018-08-22T12:24:21.732Z,54.86
2018-08-22T12:25:21.778Z,53.76
2018-08-22T12:26:21.596Z,54.91
2018-08-22T12:27:21.699Z,55.20
2018-08-22T12:28:21.444Z,55.71
2018-08-22T12:29:21.468Z,55.26
2018-08-22T12:30:21.331Z,54.74
2018-08-22T12:31:21.390Z,55.30
2018-08-22T12:32:21.228Z,55.79
2018-08-22T12:33:21.209Z,55.24
2018-08-22T12:34:21.048Z,56.71
2018-08-22T12:35:21.107Z,57.03
2018-08-22T12:36:20.900Z,57.23
2018-08-22T12:37:20.900Z,56.25
2018-08-22T12:38:20.772Z,56.47
2018-08-22T12:39:20.820Z,55.98
2018-08-22T12:40:20.637Z,57.57
2018-08-22T12:41:20.574Z,57.21
2018-08-22T12:42:20.554Z,55.84
2018-08-22T12:43:20.559Z,54.69
2018-08-22T12:44:20.361Z,53.91
2018-08-22T12:45:20.343Z,54.30
2018-08-22T12:46:20.214Z,53.37
2018-08-22T12:47:20.259Z,54.74
2018-08-22T12:48:20.123Z,55.79
2018-08-22T12:49:20.061Z,55.79
2018-08-22T12:50:19.966Z,56.45
2018-08-22T12:51:20.085Z,55.27
2018-08-22T12:52:19.815Z,55.47
2018-08-22T12:53:19.818Z,56.35
2018-08-22T12:54:19.699Z,56.86
2018-08-22T12:55:19.683Z,56.99
2018-08-22T12:56:19.542Z,56.10
2018-08-22T12:57:19.539Z,57.21
2018-08-22T12:58:19.427Z,54.17
2018-08-22T12:59:19.465Z,54.67
2018-08-22T13:00:19.255Z,55.55
2018-08-22T13:01:19.223Z,54.67
2018-08-22T13:02:19.087Z,55.22
2018-08-22T13:03:19.170Z,54.74
2018-08-22T13:04:18.995Z,54.64
2018-08-22T13:05:18.939Z,55.32
2018-08-22T13:06:18.820Z,55.13
2018-08-22T13:07:18.842Z,54.83
2018-08-22T13:08:18.695Z,55.20
2018-08-22T13:09:18.717Z,55.30
2018-08-22T13:10:18.551Z,56.01
2018-08-22T13:11:19.083Z,54.83
2018-08-22T13:12:18.394Z,54.83
2018-08-22T13:13:18.372Z,55.52
2018-08-22T13:14:18.309Z,55.32
2018-08-22T13:15:18.284Z,55.10
2018-08-22T13:16:18.142Z,54.81
2018-08-22T13:17:18.105Z,56.50
2018-08-22T13:18:18.066Z,55.32
2018-08-22T13:19:18.352Z,54.74
2018-08-22T13:20:18.184Z,55.52
2018-08-22T13:23:00.074Z,55.52
2018-08-22T13:24:00.177Z,55.49
2018-08-22T13:24:59.988Z,55.47
2018-08-22T13:25:59.937Z,56.51
2018-08-22T13:26:59.810Z,56.32
2018-08-22T13:27:59.834Z,55.63
2018-08-22T13:28:59.750Z,56.35
2018-08-22T13:29:59.615Z,56.84
2018-08-22T13:30:59.518Z,55.37
2018-08-22T13:31:59.572Z,56.05
2018-08-22T13:51:21.415Z,55.40
2018-08-22T13:52:21.400Z,54.88
2018-08-22T13:53:21.253Z,54.88
2018-08-22T13:54:21.317Z,55.27
2018-08-22T13:55:21.121Z,55.47
2018-08-22T13:56:21.280Z,54.91
2018-08-22T13:57:20.981Z,55.59
2018-08-22T13:58:20.935Z,54.59
2018-08-22T13:59:20.832Z,54.59
2018-08-22T14:00:20.844Z,54.88
2018-08-22T14:01:20.734Z,55.18
2018-08-22T14:02:20.648Z,54.88
2018-08-22T14:03:20.559Z,54.79
2018-08-22T14:04:20.572Z,54.98
2018-08-22T14:05:20.399Z,55.88
2018-08-22T14:06:20.379Z,55.30
2018-08-22T14:07:20.379Z,55.30
2018-08-22T14:08:20.284Z,54.13
2018-08-22T14:09:20.137Z,53.74
2018-08-22T14:10:20.089Z,54.93
2018-08-22T14:11:19.975Z,54.15
2018-08-22T14:12:20.031Z,54.05
2018-08-22T14:13:19.830Z,55.03
2018-08-22T14:14:19.809Z,55.20
2018-08-22T14:15:19.684Z,55.03
2018-08-22T14:16:19.723Z,54.64
2018-08-22T14:17:19.584Z,53.83
2018-08-22T14:18:19.547Z,54.91
2018-08-22T14:19:19.413Z,54.79
2018-08-22T14:20:19.468Z,55.47
2018-08-22T14:21:19.256Z,55.15
2018-08-22T14:22:19.261Z,55.37
2018-08-22T14:23:19.146Z,55.76
2018-08-22T14:24:19.157Z,55.47
2018-08-22T14:25:18.984Z,55.24
2018-08-22T14:26:18.969Z,55.15
2018-08-22T14:27:18.894Z,55.15
2018-08-22T14:28:18.955Z,56.02
2018-08-22T14:29:18.692Z,55.83
2018-08-22T14:30:18.712Z,56.02
2018-08-22T14:31:18.557Z,56.45
2018-08-22T14:32:18.608Z,56.35
2018-08-22T14:33:18.434Z,55.34
2018-08-22T14:34:18.446Z,55.24
2018-08-22T14:35:18.280Z,55.80
2018-08-22T14:38:00.108Z,56.10
2018-08-22T14:39:00.171Z,56.38
2018-08-22T14:39:59.945Z,56.58
2018-08-22T14:41:00.025Z,57.07
2018-08-22T14:41:59.813Z,57.07
2018-08-22T14:42:59.861Z,56.81
2018-08-22T14:43:59.691Z,57.20
2018-08-22T14:44:59.648Z,57.49
2018-08-22T14:45:59.526Z,57.10
2018-08-22T14:46:59.478Z,56.81
2018-08-22T14:47:59.386Z,56.51
2018-08-22T14:48:59.420Z,56.71
2018-08-22T14:49:59.237Z,57.00
2018-08-22T14:50:59.265Z,56.29
2018-08-22T14:51:59.107Z,56.77
2018-08-22T14:52:59.063Z,57.07
2018-08-22T14:53:58.991Z,57.65
2018-08-22T14:54:58.984Z,56.90
2018-08-22T14:55:58.855Z,56.61
2018-08-22T14:58:41.173Z,56.97
2018-08-22T14:59:41.111Z,57.46
2018-08-22T15:00:40.962Z,58.44
2018-08-22T15:01:41.005Z,59.02
2018-08-22T15:02:40.850Z,58.53
2018-08-22T15:05:05.633Z,57.95
2018-08-22T15:06:05.618Z,57.95
2018-08-22T15:07:05.466Z,58.24
2018-08-22T15:09:47.643Z,58.14
2018-08-22T15:10:49.673Z,58.14
2018-08-22T15:11:47.483Z,57.95
2018-08-22T15:12:47.496Z,58.24
2018-08-22T15:13:47.349Z,58.70
2018-08-22T15:14:47.368Z,58.70
2018-08-22T15:15:47.180Z,59.19
2018-08-22T15:38:09.619Z,58.99
2018-08-22T15:39:09.537Z,59.87
2018-08-22T15:41:51.675Z,59.97
2018-08-22T15:42:54.320Z,60.46
2018-08-22T15:43:51.493Z,60.23
2018-08-22T15:46:45.150Z,60.55
2018-08-22T15:47:45.170Z,60.82
2018-08-22T15:48:44.982Z,60.33
2018-08-22T15:49:45.433Z,61.21
2018-08-22T15:50:44.837Z,60.55
2018-08-22T15:51:44.812Z,61.24
2018-08-22T15:52:44.716Z,61.40
2018-08-22T15:53:44.641Z,60.46
2018-08-22T15:54:44.649Z,60.91
2018-08-22T15:55:44.538Z,60.91
2018-08-22T15:56:44.416Z,60.85
2018-08-22T15:57:44.372Z,60.52
2018-08-22T15:58:44.281Z,60.42
2018-08-22T15:59:44.273Z,60.52
2018-08-22T16:00:44.124Z,61.21
2018-08-22T16:01:44.088Z,61.99
2018-08-22T16:02:43.989Z,61.99
2018-08-22T16:03:43.993Z,61.89
2018-08-22T16:04:43.835Z,62.38
2018-08-22T16:05:43.791Z,61.99
2018-08-22T16:06:43.831Z,62.15
2018-08-22T16:07:43.734Z,62.15
2018-08-22T16:08:43.615Z,62.96
2018-08-22T16:09:43.537Z,62.86
2018-08-22T16:10:43.432Z,62.25
2018-08-22T16:11:43.422Z,62.35
2018-08-22T16:12:43.281Z,62.05
2018-08-22T16:13:43.221Z,62.28
2018-08-22T16:14:43.199Z,63.06
2018-08-22T16:15:43.174Z,62.54